sensor_id;sensor_type;location;lat;lon;timestamp;P1;durP1;ratioP1;P2;durP2;ratioP2
6551;SDS011;3309;48.708;9.290;2023-05-02T00:00:08;0.70;;;0.70;;
6551;SDS011;3309;48.708;9.290;2023-05-02T00:02:34;0.60;;;0.60;;
6551;SDS011;3309;48.708;9.290;2023-05-02T00:05:00;0.60;;;0.60;;
6551;SDS011;3309;48.708;9.290;2023-05-02T00:07:26;0.67;;;0.67;;
6551;SDS011;3309;48.708;9.290;2023-05-02T00:09:52;0.53;;;0.53;;
6551;SDS011;3309;48.708;9.290;2023-05-02T00:12:18;0.60;;;0.60;;
6551;SDS011;3309;48.708;9.290;2023-05-02T00:14:45;0.50;;;0.50;;
6551;SDS011;3309;48.708;9.290;2023-05-02T00:17:17;0.70;;;0.70;;
6551;SDS011;3309;48.708;9.290;2023-05-02T00:19:43;0.60;;;0.60;;
6551;SDS011;3309;48.708;9.290;2023-05-02T00:22:09;0.60;;;0.60;;
6551;SDS011;3309;48.708;9.290;2023-05-02T00:24:35;0.60;;;0.60;;
6551;SDS011;3309;48.708;9.290;2023-05-02T00:27:01;0.53;;;0.53;;
6551;SDS011;3309;48.708;9.290;2023-05-02T00:29:28;0.50;;;0.50;;
6551;SDS011;3309;48.708;9.290;2023-05-02T00:31:54;0.50;;;0.50;;
6551;SDS011;3309;48.708;9.290;2023-05-02T00:34:21;0.63;;;0.63;;
6551;SDS011;3309;48.708;9.290;2023-05-02T00:36:47;0.60;;;0.60;;
6551;SDS011;3309;48.708;9.290;2023-05-02T00:39:13;0.60;;;0.60;;
6551;SDS011;3309;48.708;9.290;2023-05-02T00:41:39;0.60;;;0.60;;
6551;SDS011;3309;48.708;9.290;2023-05-02T00:44:05;0.60;;;0.60;;
6551;SDS011;3309;48.708;9.290;2023-05-02T00:46:32;0.60;;;0.60;;
6551;SDS011;3309;48.708;9.290;2023-05-02T00:48:59;0.60;;;0.60;;
6551;SDS011;3309;48.708;9.290;2023-05-02T00:51:25;0.70;;;0.70;;
6551;SDS011;3309;48.708;9.290;2023-05-02T00:53:51;0.70;;;0.70;;
6551;SDS011;3309;48.708;9.290;2023-05-02T00:56:17;0.60;;;0.60;;
6551;SDS011;3309;48.708;9.290;2023-05-02T00:58:43;0.60;;;0.60;;
6551;SDS011;3309;48.708;9.290;2023-05-02T01:06:23;0.70;;;0.70;;
6551;SDS011;3309;48.708;9.290;2023-05-02T01:11:47;0.70;;;0.70;;
6551;SDS011;3309;48.708;9.290;2023-05-02T01:14:15;0.60;;;0.60;;
6551;SDS011;3309;48.708;9.290;2023-05-02T01:16:42;0.70;;;0.70;;
6551;SDS011;3309;48.708;9.290;2023-05-02T01:19:12;0.60;;;0.60;;
6551;SDS011;3309;48.708;9.290;2023-05-02T01:21:47;0.60;;;0.60;;
6551;SDS011;3309;48.708;9.290;2023-05-02T01:24:18;0.70;;;0.70;;
6551;SDS011;3309;48.708;9.290;2023-05-02T01:27:29;0.70;;;0.70;;
6551;SDS011;3309;48.708;9.290;2023-05-02T01:29:35;0.60;;;0.60;;
6551;SDS011;3309;48.708;9.290;2023-05-02T01:32:02;0.60;;;0.60;;
6551;SDS011;3309;48.708;9.290;2023-05-02T01:34:28;0.53;;;0.53;;
6551;SDS011;3309;48.708;9.290;2023-05-02T01:36:56;0.70;;;0.70;;
6551;SDS011;3309;48.708;9.290;2023-05-02T01:39:23;0.60;;;0.60;;
6551;SDS011;3309;48.708;9.290;2023-05-02T01:41:50;0.70;;;0.70;;
6551;SDS011;3309;48.708;9.290;2023-05-02T01:44:17;0.60;;;0.60;;
6551;SDS011;3309;48.708;9.290;2023-05-02T01:46:44;0.67;;;0.67;;
6551;SDS011;3309;48.708;9.290;2023-05-02T01:49:11;0.60;;;0.60;;
6551;SDS011;3309;48.708;9.290;2023-05-02T01:51:39;0.60;;;0.60;;
6551;SDS011;3309;48.708;9.290;2023-05-02T01:54:08;0.77;;;0.77;;
6551;SDS011;3309;48.708;9.290;2023-05-02T01:56:35;0.70;;;0.70;;
6551;SDS011;3309;48.708;9.290;2023-05-02T01:59:06;0.60;;;0.60;;
6551;SDS011;3309;48.708;9.290;2023-05-02T02:01:34;0.60;;;0.60;;
6551;SDS011;3309;48.708;9.290;2023-05-02T02:04:00;0.70;;;0.70;;
6551;SDS011;3309;48.708;9.290;2023-05-02T02:06:26;0.63;;;0.63;;
6551;SDS011;3309;48.708;9.290;2023-05-02T02:08:52;0.60;;;0.60;;
6551;SDS011;3309;48.708;9.290;2023-05-02T02:14:20;0.60;;;0.60;;
6551;SDS011;3309;48.708;9.290;2023-05-02T02:16:47;0.70;;;0.70;;
6551;SDS011;3309;48.708;9.290;2023-05-02T02:19:14;0.70;;;0.70;;
6551;SDS011;3309;48.708;9.290;2023-05-02T02:21:43;0.70;;;0.70;;
6551;SDS011;3309;48.708;9.290;2023-05-02T02:24:10;0.70;;;0.70;;
6551;SDS011;3309;48.708;9.290;2023-05-02T02:26:37;0.70;;;0.70;;
6551;SDS011;3309;48.708;9.290;2023-05-02T02:29:03;0.57;;;0.57;;
6551;SDS011;3309;48.708;9.290;2023-05-02T02:31:32;0.70;;;0.70;;
6551;SDS011;3309;48.708;9.290;2023-05-02T02:34:00;0.60;;;0.60;;
6551;SDS011;3309;48.708;9.290;2023-05-02T02:36:33;0.60;;;0.60;;
6551;SDS011;3309;48.708;9.290;2023-05-02T02:39:18;0.80;;;0.80;;
6551;SDS011;3309;48.708;9.290;2023-05-02T02:41:54;0.60;;;0.60;;
6551;SDS011;3309;48.708;9.290;2023-05-02T02:54:38;0.60;;;0.60;;
6551;SDS011;3309;48.708;9.290;2023-05-02T02:57:50;0.60;;;0.60;;
6551;SDS011;3309;48.708;9.290;2023-05-02T03:00:11;0.70;;;0.70;;
6551;SDS011;3309;48.708;9.290;2023-05-02T03:02:38;0.60;;;0.60;;
6551;SDS011;3309;48.708;9.290;2023-05-02T03:05:06;0.70;;;0.70;;
6551;SDS011;3309;48.708;9.290;2023-05-02T03:07:33;0.80;;;0.80;;
6551;SDS011;3309;48.708;9.290;2023-05-02T03:10:01;0.70;;;0.70;;
6551;SDS011;3309;48.708;9.290;2023-05-02T03:12:28;0.67;;;0.67;;
6551;SDS011;3309;48.708;9.290;2023-05-02T03:14:54;0.70;;;0.70;;
6551;SDS011;3309;48.708;9.290;2023-05-02T03:17:22;0.63;;;0.63;;
6551;SDS011;3309;48.708;9.290;2023-05-02T03:19:48;0.60;;;0.60;;
6551;SDS011;3309;48.708;9.290;2023-05-02T03:22:14;0.70;;;0.70;;
6551;SDS011;3309;48.708;9.290;2023-05-02T03:24:40;0.60;;;0.60;;
6551;SDS011;3309;48.708;9.290;2023-05-02T03:27:06;0.70;;;0.70;;
6551;SDS011;3309;48.708;9.290;2023-05-02T03:29:32;0.70;;;0.70;;
6551;SDS011;3309;48.708;9.290;2023-05-02T03:31:58;0.60;;;0.60;;
6551;SDS011;3309;48.708;9.290;2023-05-02T03:34:25;0.60;;;0.60;;
6551;SDS011;3309;48.708;9.290;2023-05-02T03:36:51;0.70;;;0.70;;
6551;SDS011;3309;48.708;9.290;2023-05-02T03:39:16;0.60;;;0.60;;
6551;SDS011;3309;48.708;9.290;2023-05-02T03:41:42;0.70;;;0.70;;
6551;SDS011;3309;48.708;9.290;2023-05-02T03:44:08;0.70;;;0.70;;
6551;SDS011;3309;48.708;9.290;2023-05-02T03:46:34;0.80;;;0.80;;
6551;SDS011;3309;48.708;9.290;2023-05-02T03:49:00;0.60;;;0.60;;
6551;SDS011;3309;48.708;9.290;2023-05-02T03:51:26;0.70;;;0.70;;
6551;SDS011;3309;48.708;9.290;2023-05-02T03:53:52;0.60;;;0.60;;
6551;SDS011;3309;48.708;9.290;2023-05-02T03:56:18;0.70;;;0.70;;
6551;SDS011;3309;48.708;9.290;2023-05-02T03:58:45;0.70;;;0.70;;
6551;SDS011;3309;48.708;9.290;2023-05-02T04:01:14;0.63;;;0.63;;
6551;SDS011;3309;48.708;9.290;2023-05-02T04:03:41;0.70;;;0.70;;
6551;SDS011;3309;48.708;9.290;2023-05-02T04:06:07;0.70;;;0.70;;
6551;SDS011;3309;48.708;9.290;2023-05-02T04:08:33;0.60;;;0.60;;
6551;SDS011;3309;48.708;9.290;2023-05-02T04:10:59;0.60;;;0.60;;
6551;SDS011;3309;48.708;9.290;2023-05-02T04:13:25;0.80;;;0.80;;
6551;SDS011;3309;48.708;9.290;2023-05-02T04:15:53;0.70;;;0.70;;
6551;SDS011;3309;48.708;9.290;2023-05-02T04:18:18;0.60;;;0.60;;
6551;SDS011;3309;48.708;9.290;2023-05-02T04:20:44;0.67;;;0.67;;
6551;SDS011;3309;48.708;9.290;2023-05-02T04:23:10;0.60;;;0.60;;
6551;SDS011;3309;48.708;9.290;2023-05-02T04:25:37;0.60;;;0.60;;
6551;SDS011;3309;48.708;9.290;2023-05-02T04:28:03;0.60;;;0.60;;
6551;SDS011;3309;48.708;9.290;2023-05-02T04:30:29;0.70;;;0.70;;
6551;SDS011;3309;48.708;9.290;2023-05-02T04:32:55;0.70;;;0.70;;
6551;SDS011;3309;48.708;9.290;2023-05-02T04:35:21;0.70;;;0.70;;
6551;SDS011;3309;48.708;9.290;2023-05-02T04:37:56;0.57;;;0.57;;
6551;SDS011;3309;48.708;9.290;2023-05-02T04:40:22;0.67;;;0.67;;
6551;SDS011;3309;48.708;9.290;2023-05-02T04:43:00;0.60;;;0.60;;
6551;SDS011;3309;48.708;9.290;2023-05-02T04:45:26;0.60;;;0.60;;
6551;SDS011;3309;48.708;9.290;2023-05-02T04:47:52;0.60;;;0.60;;
6551;SDS011;3309;48.708;9.290;2023-05-02T04:50:36;0.60;;;0.60;;
6551;SDS011;3309;48.708;9.290;2023-05-02T04:53:02;0.70;;;0.70;;
6551;SDS011;3309;48.708;9.290;2023-05-02T04:55:31;0.70;;;0.70;;
6551;SDS011;3309;48.708;9.290;2023-05-02T04:57:58;0.60;;;0.60;;
6551;SDS011;3309;48.708;9.290;2023-05-02T05:00:27;0.50;;;0.50;;
6551;SDS011;3309;48.708;9.290;2023-05-02T05:03:03;0.63;;;0.63;;
6551;SDS011;3309;48.708;9.290;2023-05-02T05:05:32;0.80;;;0.80;;
6551;SDS011;3309;48.708;9.290;2023-05-02T05:07:58;0.60;;;0.60;;
6551;SDS011;3309;48.708;9.290;2023-05-02T05:10:24;0.70;;;0.70;;
6551;SDS011;3309;48.708;9.290;2023-05-02T05:12:50;0.67;;;0.67;;
6551;SDS011;3309;48.708;9.290;2023-05-02T05:15:17;0.63;;;0.63;;
6551;SDS011;3309;48.708;9.290;2023-05-02T05:17:46;0.60;;;0.60;;
6551;SDS011;3309;48.708;9.290;2023-05-02T05:20:12;0.60;;;0.60;;
6551;SDS011;3309;48.708;9.290;2023-05-02T05:22:39;0.73;;;0.73;;
6551;SDS011;3309;48.708;9.290;2023-05-02T05:25:05;0.57;;;0.57;;
6551;SDS011;3309;48.708;9.290;2023-05-02T05:27:32;0.60;;;0.60;;
6551;SDS011;3309;48.708;9.290;2023-05-02T05:29:58;0.60;;;0.60;;
6551;SDS011;3309;48.708;9.290;2023-05-02T05:32:24;0.60;;;0.60;;
6551;SDS011;3309;48.708;9.290;2023-05-02T05:34:51;0.70;;;0.70;;
6551;SDS011;3309;48.708;9.290;2023-05-02T05:37:17;0.70;;;0.70;;
6551;SDS011;3309;48.708;9.290;2023-05-02T05:39:43;0.50;;;0.50;;
6551;SDS011;3309;48.708;9.290;2023-05-02T05:42:09;0.57;;;0.57;;
6551;SDS011;3309;48.708;9.290;2023-05-02T05:44:36;0.53;;;0.53;;
6551;SDS011;3309;48.708;9.290;2023-05-02T05:47:08;0.50;;;0.50;;
6551;SDS011;3309;48.708;9.290;2023-05-02T05:49:34;0.60;;;0.60;;
6551;SDS011;3309;48.708;9.290;2023-05-02T05:52:00;0.60;;;0.60;;
6551;SDS011;3309;48.708;9.290;2023-05-02T05:54:26;0.60;;;0.60;;
6551;SDS011;3309;48.708;9.290;2023-05-02T05:56:52;0.60;;;0.60;;
6551;SDS011;3309;48.708;9.290;2023-05-02T05:59:18;0.50;;;0.50;;
6551;SDS011;3309;48.708;9.290;2023-05-02T06:01:44;0.50;;;0.50;;
6551;SDS011;3309;48.708;9.290;2023-05-02T06:04:10;0.60;;;0.60;;
6551;SDS011;3309;48.708;9.290;2023-05-02T06:06:36;0.50;;;0.50;;
6551;SDS011;3309;48.708;9.290;2023-05-02T06:09:03;0.40;;;0.40;;
6551;SDS011;3309;48.708;9.290;2023-05-02T06:11:29;0.60;;;0.60;;
6551;SDS011;3309;48.708;9.290;2023-05-02T06:13:55;0.50;;;0.50;;
6551;SDS011;3309;48.708;9.290;2023-05-02T06:16:21;0.50;;;0.50;;
6551;SDS011;3309;48.708;9.290;2023-05-02T06:18:49;0.50;;;0.50;;
6551;SDS011;3309;48.708;9.290;2023-05-02T06:21:16;0.50;;;0.50;;
6551;SDS011;3309;48.708;9.290;2023-05-02T06:23:42;0.50;;;0.50;;
6551;SDS011;3309;48.708;9.290;2023-05-02T06:26:09;0.53;;;0.53;;
6551;SDS011;3309;48.708;9.290;2023-05-02T06:28:35;0.43;;;0.43;;
6551;SDS011;3309;48.708;9.290;2023-05-02T06:31:05;0.40;;;0.40;;
6551;SDS011;3309;48.708;9.290;2023-05-02T06:33:31;0.60;;;0.60;;
6551;SDS011;3309;48.708;9.290;2023-05-02T06:35:58;0.57;;;0.57;;
6551;SDS011;3309;48.708;9.290;2023-05-02T06:38:24;0.50;;;0.50;;
6551;SDS011;3309;48.708;9.290;2023-05-02T06:40:50;0.50;;;0.50;;
6551;SDS011;3309;48.708;9.290;2023-05-02T06:43:17;0.70;;;0.70;;
6551;SDS011;3309;48.708;9.290;2023-05-02T06:45:43;0.50;;;0.50;;
6551;SDS011;3309;48.708;9.290;2023-05-02T06:48:09;0.70;;;0.70;;
6551;SDS011;3309;48.708;9.290;2023-05-02T06:50:35;0.50;;;0.50;;
6551;SDS011;3309;48.708;9.290;2023-05-02T06:53:03;0.40;;;0.40;;
6551;SDS011;3309;48.708;9.290;2023-05-02T06:55:29;0.40;;;0.40;;
6551;SDS011;3309;48.708;9.290;2023-05-02T06:57:55;0.60;;;0.60;;
6551;SDS011;3309;48.708;9.290;2023-05-02T07:00:21;0.50;;;0.50;;
6551;SDS011;3309;48.708;9.290;2023-05-02T07:02:47;0.40;;;0.40;;
6551;SDS011;3309;48.708;9.290;2023-05-02T07:05:14;0.50;;;0.50;;
6551;SDS011;3309;48.708;9.290;2023-05-02T07:07:41;0.50;;;0.50;;
6551;SDS011;3309;48.708;9.290;2023-05-02T07:10:07;0.60;;;0.60;;
6551;SDS011;3309;48.708;9.290;2023-05-02T07:12:33;0.43;;;0.43;;
6551;SDS011;3309;48.708;9.290;2023-05-02T07:14:59;0.50;;;0.50;;
6551;SDS011;3309;48.708;9.290;2023-05-02T07:17:25;0.50;;;0.50;;
6551;SDS011;3309;48.708;9.290;2023-05-02T07:19:52;0.60;;;0.60;;
6551;SDS011;3309;48.708;9.290;2023-05-02T07:22:18;0.57;;;0.57;;
6551;SDS011;3309;48.708;9.290;2023-05-02T07:24:44;0.50;;;0.50;;
6551;SDS011;3309;48.708;9.290;2023-05-02T07:27:10;0.50;;;0.50;;
6551;SDS011;3309;48.708;9.290;2023-05-02T07:29:36;0.40;;;0.40;;
6551;SDS011;3309;48.708;9.290;2023-05-02T07:32:03;0.40;;;0.40;;
6551;SDS011;3309;48.708;9.290;2023-05-02T07:34:29;0.60;;;0.60;;
6551;SDS011;3309;48.708;9.290;2023-05-02T07:36:55;0.50;;;0.50;;
6551;SDS011;3309;48.708;9.290;2023-05-02T07:39:21;0.50;;;0.50;;
6551;SDS011;3309;48.708;9.290;2023-05-02T07:41:51;0.40;;;0.40;;
6551;SDS011;3309;48.708;9.290;2023-05-02T07:44:17;0.47;;;0.47;;
6551;SDS011;3309;48.708;9.290;2023-05-02T07:46:43;0.40;;;0.40;;
6551;SDS011;3309;48.708;9.290;2023-05-02T07:49:09;0.50;;;0.50;;
6551;SDS011;3309;48.708;9.290;2023-05-02T07:51:35;0.40;;;0.40;;
6551;SDS011;3309;48.708;9.290;2023-05-02T07:54:13;0.40;;;0.40;;
6551;SDS011;3309;48.708;9.290;2023-05-02T07:56:39;0.40;;;0.40;;
6551;SDS011;3309;48.708;9.290;2023-05-02T07:59:06;0.40;;;0.40;;
6551;SDS011;3309;48.708;9.290;2023-05-02T08:01:33;0.50;;;0.50;;
6551;SDS011;3309;48.708;9.290;2023-05-02T08:03:59;0.40;;;0.40;;
6551;SDS011;3309;48.708;9.290;2023-05-02T08:06:25;0.60;;;0.60;;
6551;SDS011;3309;48.708;9.290;2023-05-02T08:08:52;0.50;;;0.50;;
6551;SDS011;3309;48.708;9.290;2023-05-02T08:11:18;0.40;;;0.40;;
6551;SDS011;3309;48.708;9.290;2023-05-02T08:13:46;0.50;;;0.50;;
6551;SDS011;3309;48.708;9.290;2023-05-02T08:16:12;0.50;;;0.50;;
6551;SDS011;3309;48.708;9.290;2023-05-02T08:18:38;0.40;;;0.40;;
6551;SDS011;3309;48.708;9.290;2023-05-02T08:21:05;0.40;;;0.40;;
6551;SDS011;3309;48.708;9.290;2023-05-02T08:23:31;0.40;;;0.40;;
6551;SDS011;3309;48.708;9.290;2023-05-02T08:25:57;0.50;;;0.50;;
6551;SDS011;3309;48.708;9.290;2023-05-02T08:28:23;0.40;;;0.40;;
6551;SDS011;3309;48.708;9.290;2023-05-02T08:30:49;0.40;;;0.40;;
6551;SDS011;3309;48.708;9.290;2023-05-02T08:33:15;0.50;;;0.50;;
6551;SDS011;3309;48.708;9.290;2023-05-02T08:35:41;0.50;;;0.50;;
6551;SDS011;3309;48.708;9.290;2023-05-02T08:38:07;0.50;;;0.50;;
6551;SDS011;3309;48.708;9.290;2023-05-02T08:40:34;0.50;;;0.50;;
6551;SDS011;3309;48.708;9.290;2023-05-02T08:43:00;0.50;;;0.50;;
6551;SDS011;3309;48.708;9.290;2023-05-02T08:45:27;0.50;;;0.50;;
6551;SDS011;3309;48.708;9.290;2023-05-02T08:47:56;0.50;;;0.50;;
6551;SDS011;3309;48.708;9.290;2023-05-02T08:50:23;0.40;;;0.40;;
6551;SDS011;3309;48.708;9.290;2023-05-02T08:52:49;0.30;;;0.30;;
6551;SDS011;3309;48.708;9.290;2023-05-02T08:55:16;0.50;;;0.50;;
6551;SDS011;3309;48.708;9.290;2023-05-02T08:57:42;0.40;;;0.40;;
6551;SDS011;3309;48.708;9.290;2023-05-02T09:00:08;0.40;;;0.40;;
6551;SDS011;3309;48.708;9.290;2023-05-02T09:05:07;0.40;;;0.40;;
6551;SDS011;3309;48.708;9.290;2023-05-02T09:07:46;0.47;;;0.47;;
6551;SDS011;3309;48.708;9.290;2023-05-02T09:10:13;0.50;;;0.50;;
6551;SDS011;3309;48.708;9.290;2023-05-02T09:12:39;0.50;;;0.50;;
6551;SDS011;3309;48.708;9.290;2023-05-02T09:17:41;0.40;;;0.40;;
6551;SDS011;3309;48.708;9.290;2023-05-02T09:20:08;0.50;;;0.50;;
6551;SDS011;3309;48.708;9.290;2023-05-02T09:22:35;0.40;;;0.40;;
6551;SDS011;3309;48.708;9.290;2023-05-02T09:25:01;0.40;;;0.40;;
6551;SDS011;3309;48.708;9.290;2023-05-02T09:27:28;0.30;;;0.30;;
6551;SDS011;3309;48.708;9.290;2023-05-02T09:30:36;0.40;;;0.40;;
6551;SDS011;3309;48.708;9.290;2023-05-02T09:32:44;0.40;;;0.40;;
6551;SDS011;3309;48.708;9.290;2023-05-02T09:35:10;0.40;;;0.40;;
6551;SDS011;3309;48.708;9.290;2023-05-02T09:37:37;0.40;;;0.40;;
6551;SDS011;3309;48.708;9.290;2023-05-02T09:40:04;0.40;;;0.40;;
6551;SDS011;3309;48.708;9.290;2023-05-02T09:42:30;0.30;;;0.30;;
6551;SDS011;3309;48.708;9.290;2023-05-02T09:44:56;0.40;;;0.40;;
6551;SDS011;3309;48.708;9.290;2023-05-02T09:47:26;0.40;;;0.40;;
6551;SDS011;3309;48.708;9.290;2023-05-02T09:49:52;0.40;;;0.40;;
6551;SDS011;3309;48.708;9.290;2023-05-02T09:52:19;0.30;;;0.30;;
6551;SDS011;3309;48.708;9.290;2023-05-02T09:54:48;0.40;;;0.40;;
6551;SDS011;3309;48.708;9.290;2023-05-02T09:57:18;0.33;;;0.33;;
6551;SDS011;3309;48.708;9.290;2023-05-02T09:59:54;0.33;;;0.33;;
6551;SDS011;3309;48.708;9.290;2023-05-02T10:02:20;0.40;;;0.40;;
6551;SDS011;3309;48.708;9.290;2023-05-02T10:04:46;0.40;;;0.40;;
6551;SDS011;3309;48.708;9.290;2023-05-02T10:07:13;0.30;;;0.30;;
6551;SDS011;3309;48.708;9.290;2023-05-02T10:09:42;0.30;;;0.30;;
6551;SDS011;3309;48.708;9.290;2023-05-02T10:12:10;0.30;;;0.30;;
6551;SDS011;3309;48.708;9.290;2023-05-02T10:14:39;0.40;;;0.40;;
6551;SDS011;3309;48.708;9.290;2023-05-02T10:17:10;0.47;;;0.47;;
6551;SDS011;3309;48.708;9.290;2023-05-02T10:22:18;0.30;;;0.30;;
6551;SDS011;3309;48.708;9.290;2023-05-02T10:24:45;0.40;;;0.40;;
6551;SDS011;3309;48.708;9.290;2023-05-02T10:27:13;0.30;;;0.30;;
6551;SDS011;3309;48.708;9.290;2023-05-02T10:29:39;0.30;;;0.30;;
6551;SDS011;3309;48.708;9.290;2023-05-02T10:32:05;0.30;;;0.30;;
6551;SDS011;3309;48.708;9.290;2023-05-02T10:34:31;0.43;;;0.43;;
6551;SDS011;3309;48.708;9.290;2023-05-02T10:36:58;0.53;;;0.53;;
6551;SDS011;3309;48.708;9.290;2023-05-02T10:39:27;0.40;;;0.40;;
6551;SDS011;3309;48.708;9.290;2023-05-02T10:41:54;0.50;;;0.50;;
6551;SDS011;3309;48.708;9.290;2023-05-02T10:44:37;0.50;;;0.50;;
6551;SDS011;3309;48.708;9.290;2023-05-02T10:49:59;0.47;;;0.47;;
6551;SDS011;3309;48.708;9.290;2023-05-02T10:55:12;0.30;;;0.30;;
6551;SDS011;3309;48.708;9.290;2023-05-02T11:00:25;0.40;;;0.40;;
6551;SDS011;3309;48.708;9.290;2023-05-02T11:02:52;0.30;;;0.30;;
6551;SDS011;3309;48.708;9.290;2023-05-02T11:05:18;0.40;;;0.40;;
6551;SDS011;3309;48.708;9.290;2023-05-02T11:07:44;0.30;;;0.30;;
6551;SDS011;3309;48.708;9.290;2023-05-02T11:12:48;0.40;;;0.40;;
6551;SDS011;3309;48.708;9.290;2023-05-02T11:18:00;0.30;;;0.30;;
6551;SDS011;3309;48.708;9.290;2023-05-02T11:20:26;0.40;;;0.40;;
6551;SDS011;3309;48.708;9.290;2023-05-02T11:22:52;0.40;;;0.40;;
6551;SDS011;3309;48.708;9.290;2023-05-02T11:27:54;0.57;;;0.57;;
6551;SDS011;3309;48.708;9.290;2023-05-02T11:30:39;0.50;;;0.50;;
6551;SDS011;3309;48.708;9.290;2023-05-02T11:35:32;0.47;;;0.47;;
6551;SDS011;3309;48.708;9.290;2023-05-02T11:38:00;0.37;;;0.37;;
6551;SDS011;3309;48.708;9.290;2023-05-02T11:40:27;0.40;;;0.40;;
6551;SDS011;3309;48.708;9.290;2023-05-02T11:42:54;0.40;;;0.40;;
6551;SDS011;3309;48.708;9.290;2023-05-02T11:45:20;0.40;;;0.40;;
6551;SDS011;3309;48.708;9.290;2023-05-02T11:47:47;0.43;;;0.43;;
6551;SDS011;3309;48.708;9.290;2023-05-02T11:50:14;0.30;;;0.30;;
6551;SDS011;3309;48.708;9.290;2023-05-02T11:52:41;0.30;;;0.30;;
6551;SDS011;3309;48.708;9.290;2023-05-02T11:55:09;0.30;;;0.30;;
6551;SDS011;3309;48.708;9.290;2023-05-02T11:57:36;0.30;;;0.30;;
6551;SDS011;3309;48.708;9.290;2023-05-02T12:00:02;0.30;;;0.30;;
6551;SDS011;3309;48.708;9.290;2023-05-02T12:02:38;0.30;;;0.30;;
6551;SDS011;3309;48.708;9.290;2023-05-02T12:05:08;0.20;;;0.20;;
6551;SDS011;3309;48.708;9.290;2023-05-02T12:07:38;0.40;;;0.40;;
6551;SDS011;3309;48.708;9.290;2023-05-02T12:10:05;0.23;;;0.23;;
6551;SDS011;3309;48.708;9.290;2023-05-02T12:12:31;0.40;;;0.40;;
6551;SDS011;3309;48.708;9.290;2023-05-02T12:14:57;0.40;;;0.40;;
6551;SDS011;3309;48.708;9.290;2023-05-02T12:17:23;0.40;;;0.40;;
6551;SDS011;3309;48.708;9.290;2023-05-02T12:19:49;0.47;;;0.47;;
6551;SDS011;3309;48.708;9.290;2023-05-02T12:22:15;0.50;;;0.50;;
6551;SDS011;3309;48.708;9.290;2023-05-02T12:24:42;0.40;;;0.40;;
6551;SDS011;3309;48.708;9.290;2023-05-02T12:27:14;0.40;;;0.40;;
6551;SDS011;3309;48.708;9.290;2023-05-02T12:29:41;0.40;;;0.40;;
6551;SDS011;3309;48.708;9.290;2023-05-02T12:32:08;0.30;;;0.30;;
6551;SDS011;3309;48.708;9.290;2023-05-02T12:34:35;0.33;;;0.33;;
6551;SDS011;3309;48.708;9.290;2023-05-02T12:37:01;0.30;;;0.30;;
6551;SDS011;3309;48.708;9.290;2023-05-02T12:39:37;0.50;;;0.50;;
6551;SDS011;3309;48.708;9.290;2023-05-02T12:44:40;0.40;;;0.40;;
6551;SDS011;3309;48.708;9.290;2023-05-02T12:47:06;0.40;;;0.40;;
6551;SDS011;3309;48.708;9.290;2023-05-02T12:49:46;0.30;;;0.30;;
6551;SDS011;3309;48.708;9.290;2023-05-02T12:52:13;0.40;;;0.40;;
6551;SDS011;3309;48.708;9.290;2023-05-02T12:54:39;0.30;;;0.30;;
6551;SDS011;3309;48.708;9.290;2023-05-02T12:57:05;0.40;;;0.40;;
6551;SDS011;3309;48.708;9.290;2023-05-02T12:59:31;0.37;;;0.37;;
6551;SDS011;3309;48.708;9.290;2023-05-02T13:01:58;0.33;;;0.33;;
6551;SDS011;3309;48.708;9.290;2023-05-02T13:04:36;0.30;;;0.30;;
6551;SDS011;3309;48.708;9.290;2023-05-02T13:07:05;0.30;;;0.30;;
6551;SDS011;3309;48.708;9.290;2023-05-02T13:09:31;0.30;;;0.30;;
6551;SDS011;3309;48.708;9.290;2023-05-02T13:11:57;0.30;;;0.30;;
6551;SDS011;3309;48.708;9.290;2023-05-02T13:14:23;0.40;;;0.40;;
6551;SDS011;3309;48.708;9.290;2023-05-02T13:16:49;0.33;;;0.33;;
6551;SDS011;3309;48.708;9.290;2023-05-02T13:19:19;0.50;;;0.50;;
6551;SDS011;3309;48.708;9.290;2023-05-02T13:21:45;0.40;;;0.40;;
6551;SDS011;3309;48.708;9.290;2023-05-02T13:24:11;0.30;;;0.30;;
6551;SDS011;3309;48.708;9.290;2023-05-02T13:26:37;0.30;;;0.30;;
6551;SDS011;3309;48.708;9.290;2023-05-02T13:29:03;0.40;;;0.40;;
6551;SDS011;3309;48.708;9.290;2023-05-02T13:31:30;0.40;;;0.40;;
6551;SDS011;3309;48.708;9.290;2023-05-02T13:33:55;0.40;;;0.40;;
6551;SDS011;3309;48.708;9.290;2023-05-02T13:36:21;0.40;;;0.40;;
6551;SDS011;3309;48.708;9.290;2023-05-02T13:38:48;0.30;;;0.30;;
6551;SDS011;3309;48.708;9.290;2023-05-02T13:41:14;0.30;;;0.30;;
6551;SDS011;3309;48.708;9.290;2023-05-02T13:43:40;0.30;;;0.30;;
6551;SDS011;3309;48.708;9.290;2023-05-02T13:46:06;0.40;;;0.40;;
6551;SDS011;3309;48.708;9.290;2023-05-02T13:48:32;0.40;;;0.40;;
6551;SDS011;3309;48.708;9.290;2023-05-02T13:50:58;0.30;;;0.30;;
6551;SDS011;3309;48.708;9.290;2023-05-02T13:53:24;0.33;;;0.33;;
6551;SDS011;3309;48.708;9.290;2023-05-02T13:55:50;0.37;;;0.37;;
6551;SDS011;3309;48.708;9.290;2023-05-02T13:58:16;0.30;;;0.30;;
6551;SDS011;3309;48.708;9.290;2023-05-02T14:00:42;0.40;;;0.40;;
6551;SDS011;3309;48.708;9.290;2023-05-02T14:03:08;0.40;;;0.40;;
6551;SDS011;3309;48.708;9.290;2023-05-02T14:05:35;0.33;;;0.33;;
6551;SDS011;3309;48.708;9.290;2023-05-02T14:08:01;0.30;;;0.30;;
6551;SDS011;3309;48.708;9.290;2023-05-02T14:10:27;0.33;;;0.33;;
6551;SDS011;3309;48.708;9.290;2023-05-02T14:12:53;0.37;;;0.37;;
6551;SDS011;3309;48.708;9.290;2023-05-02T14:15:18;0.40;;;0.40;;
6551;SDS011;3309;48.708;9.290;2023-05-02T14:17:44;0.40;;;0.40;;
6551;SDS011;3309;48.708;9.290;2023-05-02T14:20:10;0.30;;;0.30;;
6551;SDS011;3309;48.708;9.290;2023-05-02T14:22:36;0.40;;;0.40;;
6551;SDS011;3309;48.708;9.290;2023-05-02T14:25:03;0.40;;;0.40;;
6551;SDS011;3309;48.708;9.290;2023-05-02T14:27:29;0.30;;;0.30;;
6551;SDS011;3309;48.708;9.290;2023-05-02T14:29:55;0.40;;;0.40;;
6551;SDS011;3309;48.708;9.290;2023-05-02T14:32:21;0.40;;;0.40;;
6551;SDS011;3309;48.708;9.290;2023-05-02T14:34:47;0.40;;;0.40;;
6551;SDS011;3309;48.708;9.290;2023-05-02T14:37:13;0.30;;;0.30;;
6551;SDS011;3309;48.708;9.290;2023-05-02T14:39:39;0.40;;;0.40;;
6551;SDS011;3309;48.708;9.290;2023-05-02T14:42:06;0.30;;;0.30;;
6551;SDS011;3309;48.708;9.290;2023-05-02T14:44:32;0.37;;;0.37;;
6551;SDS011;3309;48.708;9.290;2023-05-02T14:46:58;0.30;;;0.30;;
6551;SDS011;3309;48.708;9.290;2023-05-02T14:49:24;0.40;;;0.40;;
6551;SDS011;3309;48.708;9.290;2023-05-02T14:51:50;0.40;;;0.40;;
6551;SDS011;3309;48.708;9.290;2023-05-02T14:54:16;0.30;;;0.30;;
6551;SDS011;3309;48.708;9.290;2023-05-02T14:56:44;0.30;;;0.30;;
6551;SDS011;3309;48.708;9.290;2023-05-02T14:59:10;0.30;;;0.30;;
6551;SDS011;3309;48.708;9.290;2023-05-02T15:01:36;0.40;;;0.40;;
6551;SDS011;3309;48.708;9.290;2023-05-02T15:04:02;0.30;;;0.30;;
6551;SDS011;3309;48.708;9.290;2023-05-02T15:06:28;0.30;;;0.30;;
6551;SDS011;3309;48.708;9.290;2023-05-02T15:08:57;0.40;;;0.40;;
6551;SDS011;3309;48.708;9.290;2023-05-02T15:11:23;0.30;;;0.30;;
6551;SDS011;3309;48.708;9.290;2023-05-02T15:13:49;0.30;;;0.30;;
6551;SDS011;3309;48.708;9.290;2023-05-02T15:16:15;0.30;;;0.30;;
6551;SDS011;3309;48.708;9.290;2023-05-02T15:18:41;0.30;;;0.30;;
6551;SDS011;3309;48.708;9.290;2023-05-02T15:21:07;0.40;;;0.40;;
6551;SDS011;3309;48.708;9.290;2023-05-02T15:23:33;0.40;;;0.40;;
6551;SDS011;3309;48.708;9.290;2023-05-02T15:25:59;0.30;;;0.30;;
6551;SDS011;3309;48.708;9.290;2023-05-02T15:28:25;0.40;;;0.40;;
6551;SDS011;3309;48.708;9.290;2023-05-02T15:30:51;0.30;;;0.30;;
6551;SDS011;3309;48.708;9.290;2023-05-02T15:33:17;0.50;;;0.50;;
6551;SDS011;3309;48.708;9.290;2023-05-02T15:35:51;0.40;;;0.40;;
6551;SDS011;3309;48.708;9.290;2023-05-02T15:38:17;0.33;;;0.33;;
6551;SDS011;3309;48.708;9.290;2023-05-02T15:40:43;0.40;;;0.40;;
6551;SDS011;3309;48.708;9.290;2023-05-02T15:43:11;0.40;;;0.40;;
6551;SDS011;3309;48.708;9.290;2023-05-02T15:45:37;0.40;;;0.40;;
6551;SDS011;3309;48.708;9.290;2023-05-02T15:48:03;0.30;;;0.30;;
6551;SDS011;3309;48.708;9.290;2023-05-02T15:50:30;0.40;;;0.40;;
6551;SDS011;3309;48.708;9.290;2023-05-02T15:52:55;0.40;;;0.40;;
6551;SDS011;3309;48.708;9.290;2023-05-02T15:55:21;0.30;;;0.30;;
6551;SDS011;3309;48.708;9.290;2023-05-02T15:57:47;0.30;;;0.30;;
6551;SDS011;3309;48.708;9.290;2023-05-02T16:00:15;0.40;;;0.40;;
6551;SDS011;3309;48.708;9.290;2023-05-02T16:02:41;0.40;;;0.40;;
6551;SDS011;3309;48.708;9.290;2023-05-02T16:05:08;0.30;;;0.30;;